sensor_id;sensor_type;location;lat;lon;timestamp;P1;durP1;ratioP1;P2;durP2;ratioP2
11187;SDS011;5650;52.700;7.306;2022-11-15T00:01:59;24.00;;;19.10;;
11187;SDS011;5650;52.700;7.306;2022-11-15T00:04:29;23.88;;;19.27;;
11187;SDS011;5650;52.700;7.306;2022-11-15T00:06:56;22.55;;;18.25;;
11187;SDS011;5650;52.700;7.306;2022-11-15T00:09:23;23.05;;;18.73;;
11187;SDS011;5650;52.700;7.306;2022-11-15T00:11:56;21.05;;;17.02;;
11187;SDS011;5650;52.700;7.306;2022-11-15T00:14:26;22.02;;;17.90;;
11187;SDS011;5650;52.700;7.306;2022-11-15T00:16:56;23.60;;;17.38;;
11187;SDS011;5650;52.700;7.306;2022-11-15T00:19:25;24.52;;;17.25;;
11187;SDS011;5650;52.700;7.306;2022-11-15T00:21:52;21.27;;;17.48;;
11187;SDS011;5650;52.700;7.306;2022-11-15T00:24:19;20.00;;;16.58;;
11187;SDS011;5650;52.700;7.306;2022-11-15T00:26:47;23.42;;;17.27;;
11187;SDS011;5650;52.700;7.306;2022-11-15T00:29:14;19.23;;;16.92;;
11187;SDS011;5650;52.700;7.306;2022-11-15T00:31:41;19.70;;;16.90;;
11187;SDS011;5650;52.700;7.306;2022-11-15T00:34:10;18.60;;;16.10;;
11187;SDS011;5650;52.700;7.306;2022-11-15T00:36:37;20.45;;;16.35;;
11187;SDS011;5650;52.700;7.306;2022-11-15T00:39:05;20.98;;;17.08;;
11187;SDS011;5650;52.700;7.306;2022-11-15T00:41:32;18.92;;;15.75;;
11187;SDS011;5650;52.700;7.306;2022-11-15T00:44:01;18.60;;;16.00;;
11187;SDS011;5650;52.700;7.306;2022-11-15T00:46:28;21.15;;;16.63;;
11187;SDS011;5650;52.700;7.306;2022-11-15T00:48:58;19.40;;;16.90;;
11187;SDS011;5650;52.700;7.306;2022-11-15T00:51:33;20.25;;;17.05;;
11187;SDS011;5650;52.700;7.306;2022-11-15T00:54:07;23.77;;;16.60;;
11187;SDS011;5650;52.700;7.306;2022-11-15T00:56:34;20.90;;;15.65;;
11187;SDS011;5650;52.700;7.306;2022-11-15T00:59:07;21.83;;;16.75;;
11187;SDS011;5650;52.700;7.306;2022-11-15T01:01:34;20.35;;;16.45;;
11187;SDS011;5650;52.700;7.306;2022-11-15T01:04:07;18.33;;;15.63;;
11187;SDS011;5650;52.700;7.306;2022-11-15T01:06:39;18.45;;;15.85;;
11187;SDS011;5650;52.700;7.306;2022-11-15T01:09:09;19.80;;;16.08;;
11187;SDS011;5650;52.700;7.306;2022-11-15T01:11:36;18.98;;;16.23;;
11187;SDS011;5650;52.700;7.306;2022-11-15T01:14:06;19.70;;;15.48;;
11187;SDS011;5650;52.700;7.306;2022-11-15T01:16:37;17.92;;;15.88;;
11187;SDS011;5650;52.700;7.306;2022-11-15T01:19:04;18.80;;;15.90;;
11187;SDS011;5650;52.700;7.306;2022-11-15T01:21:37;19.77;;;16.58;;
11187;SDS011;5650;52.700;7.306;2022-11-15T01:24:11;22.98;;;15.90;;
11187;SDS011;5650;52.700;7.306;2022-11-15T01:26:42;20.33;;;15.63;;
11187;SDS011;5650;52.700;7.306;2022-11-15T01:29:12;17.88;;;15.68;;
11187;SDS011;5650;52.700;7.306;2022-11-15T01:31:42;20.83;;;15.68;;
11187;SDS011;5650;52.700;7.306;2022-11-15T01:34:09;19.85;;;16.52;;
11187;SDS011;5650;52.700;7.306;2022-11-15T01:36:36;18.02;;;15.32;;
11187;SDS011;5650;52.700;7.306;2022-11-15T01:39:05;19.63;;;16.40;;
11187;SDS011;5650;52.700;7.306;2022-11-15T01:41:32;20.17;;;16.30;;
11187;SDS011;5650;52.700;7.306;2022-11-15T01:47:01;19.92;;;16.75;;
11187;SDS011;5650;52.700;7.306;2022-11-15T01:49:35;19.40;;;16.05;;
11187;SDS011;5650;52.700;7.306;2022-11-15T01:52:06;19.17;;;15.65;;
11187;SDS011;5650;52.700;7.306;2022-11-15T01:54:38;21.67;;;16.85;;
11187;SDS011;5650;52.700;7.306;2022-11-15T01:57:06;19.98;;;15.80;;
11187;SDS011;5650;52.700;7.306;2022-11-15T01:59:36;22.55;;;16.70;;
11187;SDS011;5650;52.700;7.306;2022-11-15T02:02:07;19.30;;;16.05;;
11187;SDS011;5650;52.700;7.306;2022-11-15T02:04:35;22.25;;;15.85;;
11187;SDS011;5650;52.700;7.306;2022-11-15T02:07:06;20.65;;;16.85;;
11187;SDS011;5650;52.700;7.306;2022-11-15T02:09:37;19.45;;;16.17;;
11187;SDS011;5650;52.700;7.306;2022-11-15T02:12:05;22.55;;;17.02;;
11187;SDS011;5650;52.700;7.306;2022-11-15T02:14:34;21.92;;;16.88;;
11187;SDS011;5650;52.700;7.306;2022-11-15T02:17:07;22.95;;;17.00;;
11187;SDS011;5650;52.700;7.306;2022-11-15T02:20:04;20.25;;;16.65;;
11187;SDS011;5650;52.700;7.306;2022-11-15T02:22:45;21.20;;;16.85;;
11187;SDS011;5650;52.700;7.306;2022-11-15T02:25:38;21.45;;;16.58;;
11187;SDS011;5650;52.700;7.306;2022-11-15T02:28:15;25.23;;;17.52;;
11187;SDS011;5650;52.700;7.306;2022-11-15T02:31:03;22.98;;;16.63;;
11187;SDS011;5650;52.700;7.306;2022-11-15T02:33:36;23.00;;;16.75;;
11187;SDS011;5650;52.700;7.306;2022-11-15T02:36:18;22.63;;;17.60;;
11187;SDS011;5650;52.700;7.306;2022-11-15T02:38:54;25.15;;;17.85;;
11187;SDS011;5650;52.700;7.306;2022-11-15T02:41:30;21.52;;;16.63;;
11187;SDS011;5650;52.700;7.306;2022-11-15T02:44:12;26.35;;;17.95;;
11187;SDS011;5650;52.700;7.306;2022-11-15T02:46:46;23.58;;;16.77;;
11187;SDS011;5650;52.700;7.306;2022-11-15T02:49:34;24.10;;;18.08;;
11187;SDS011;5650;52.700;7.306;2022-11-15T02:52:04;24.88;;;18.33;;
11187;SDS011;5650;52.700;7.306;2022-11-15T02:54:33;27.55;;;19.08;;
11187;SDS011;5650;52.700;7.306;2022-11-15T02:57:01;30.58;;;18.60;;
11187;SDS011;5650;52.700;7.306;2022-11-15T03:02:31;25.42;;;18.63;;
11187;SDS011;5650;52.700;7.306;2022-11-15T03:05:13;30.10;;;19.42;;
11187;SDS011;5650;52.700;7.306;2022-11-15T03:07:50;23.50;;;17.67;;
11187;SDS011;5650;52.700;7.306;2022-11-15T03:10:32;29.27;;;19.25;;
11187;SDS011;5650;52.700;7.306;2022-11-15T03:13:20;25.80;;;17.88;;
11187;SDS011;5650;52.700;7.306;2022-11-15T03:15:53;27.40;;;18.00;;
11187;SDS011;5650;52.700;7.306;2022-11-15T03:18:40;30.83;;;20.10;;
11187;SDS011;5650;52.700;7.306;2022-11-15T03:21:10;29.55;;;19.50;;
11187;SDS011;5650;52.700;7.306;2022-11-15T03:23:40;26.60;;;19.30;;
11187;SDS011;5650;52.700;7.306;2022-11-15T03:26:10;30.27;;;19.50;;
11187;SDS011;5650;52.700;7.306;2022-11-15T03:28:41;29.23;;;19.73;;
11187;SDS011;5650;52.700;7.306;2022-11-15T03:31:13;24.65;;;17.90;;
11187;SDS011;5650;52.700;7.306;2022-11-15T03:34:02;30.02;;;19.20;;
11187;SDS011;5650;52.700;7.306;2022-11-15T03:36:33;25.60;;;18.70;;
11187;SDS011;5650;52.700;7.306;2022-11-15T03:39:02;26.63;;;18.55;;
11187;SDS011;5650;52.700;7.306;2022-11-15T03:41:35;23.38;;;17.13;;
11187;SDS011;5650;52.700;7.306;2022-11-15T03:44:08;22.27;;;17.42;;
11187;SDS011;5650;52.700;7.306;2022-11-15T03:46:42;27.23;;;19.20;;
11187;SDS011;5650;52.700;7.306;2022-11-15T03:49:15;25.92;;;18.67;;
11187;SDS011;5650;52.700;7.306;2022-11-15T03:51:46;25.98;;;18.13;;
11187;SDS011;5650;52.700;7.306;2022-11-15T03:54:14;26.65;;;18.75;;
11187;SDS011;5650;52.700;7.306;2022-11-15T03:56:41;29.38;;;18.58;;
11187;SDS011;5650;52.700;7.306;2022-11-15T03:59:08;26.70;;;18.33;;
11187;SDS011;5650;52.700;7.306;2022-11-15T04:01:35;28.30;;;18.63;;
11187;SDS011;5650;52.700;7.306;2022-11-15T04:04:03;26.13;;;17.60;;
11187;SDS011;5650;52.700;7.306;2022-11-15T04:06:34;25.80;;;17.48;;
11187;SDS011;5650;52.700;7.306;2022-11-15T04:09:02;24.95;;;17.77;;
11187;SDS011;5650;52.700;7.306;2022-11-15T04:11:29;29.90;;;18.02;;
11187;SDS011;5650;52.700;7.306;2022-11-15T04:14:02;29.52;;;17.42;;
11187;SDS011;5650;52.700;7.306;2022-11-15T04:16:29;26.55;;;17.27;;
11187;SDS011;5650;52.700;7.306;2022-11-15T04:18:59;25.05;;;17.70;;
11187;SDS011;5650;52.700;7.306;2022-11-15T04:21:45;20.83;;;16.10;;
11187;SDS011;5650;52.700;7.306;2022-11-15T04:24:32;27.00;;;16.88;;
11187;SDS011;5650;52.700;7.306;2022-11-15T04:27:01;23.13;;;16.02;;
11187;SDS011;5650;52.700;7.306;2022-11-15T04:29:29;24.88;;;17.45;;
11187;SDS011;5650;52.700;7.306;2022-11-15T04:32:02;25.15;;;16.67;;
11187;SDS011;5650;52.700;7.306;2022-11-15T04:34:30;22.35;;;16.77;;
11187;SDS011;5650;52.700;7.306;2022-11-15T04:37:05;21.80;;;15.85;;
11187;SDS011;5650;52.700;7.306;2022-11-15T04:39:40;21.48;;;16.38;;
11187;SDS011;5650;52.700;7.306;2022-11-15T04:42:08;22.80;;;16.33;;
11187;SDS011;5650;52.700;7.306;2022-11-15T04:44:38;22.35;;;15.55;;
11187;SDS011;5650;52.700;7.306;2022-11-15T04:47:11;23.38;;;15.55;;
11187;SDS011;5650;52.700;7.306;2022-11-15T04:49:38;21.65;;;15.95;;
11187;SDS011;5650;52.700;7.306;2022-11-15T04:52:07;21.08;;;15.35;;
11187;SDS011;5650;52.700;7.306;2022-11-15T04:54:34;26.05;;;15.57;;
11187;SDS011;5650;52.700;7.306;2022-11-15T04:57:07;27.70;;;17.33;;
11187;SDS011;5650;52.700;7.306;2022-11-15T04:59:34;23.98;;;16.33;;
11187;SDS011;5650;52.700;7.306;2022-11-15T05:02:01;22.15;;;15.98;;
11187;SDS011;5650;52.700;7.306;2022-11-15T05:04:28;23.63;;;15.63;;
11187;SDS011;5650;52.700;7.306;2022-11-15T05:06:54;20.48;;;14.98;;
11187;SDS011;5650;52.700;7.306;2022-11-15T05:09:23;22.92;;;15.75;;
11187;SDS011;5650;52.700;7.306;2022-11-15T05:11:50;23.77;;;15.43;;
11187;SDS011;5650;52.700;7.306;2022-11-15T05:14:17;23.73;;;15.40;;
11187;SDS011;5650;52.700;7.306;2022-11-15T05:16:45;21.23;;;15.30;;
11187;SDS011;5650;52.700;7.306;2022-11-15T05:19:12;22.13;;;15.23;;
11187;SDS011;5650;52.700;7.306;2022-11-15T05:21:39;19.85;;;15.45;;
11187;SDS011;5650;52.700;7.306;2022-11-15T05:24:08;19.83;;;15.60;;
11187;SDS011;5650;52.700;7.306;2022-11-15T05:26:38;25.10;;;16.05;;
11187;SDS011;5650;52.700;7.306;2022-11-15T05:29:05;22.83;;;15.82;;
11187;SDS011;5650;52.700;7.306;2022-11-15T05:31:32;21.58;;;15.63;;
11187;SDS011;5650;52.700;7.306;2022-11-15T05:33:59;21.63;;;15.43;;
11187;SDS011;5650;52.700;7.306;2022-11-15T05:36:29;23.42;;;16.45;;
11187;SDS011;5650;52.700;7.306;2022-11-15T05:39:01;19.33;;;14.85;;
11187;SDS011;5650;52.700;7.306;2022-11-15T05:41:30;23.10;;;15.63;;
11187;SDS011;5650;52.700;7.306;2022-11-15T05:44:02;21.23;;;16.08;;
11187;SDS011;5650;52.700;7.306;2022-11-15T05:46:32;19.77;;;14.30;;
11187;SDS011;5650;52.700;7.306;2022-11-15T05:49:00;25.20;;;14.98;;
11187;SDS011;5650;52.700;7.306;2022-11-15T05:51:28;19.48;;;13.73;;
11187;SDS011;5650;52.700;7.306;2022-11-15T05:53:56;17.73;;;14.35;;
11187;SDS011;5650;52.700;7.306;2022-11-15T05:56:24;18.45;;;14.25;;
11187;SDS011;5650;52.700;7.306;2022-11-15T05:58:52;19.65;;;14.55;;
11187;SDS011;5650;52.700;7.306;2022-11-15T06:01:22;22.38;;;14.75;;
11187;SDS011;5650;52.700;7.306;2022-11-15T06:03:51;19.80;;;14.95;;
11187;SDS011;5650;52.700;7.306;2022-11-15T06:06:18;19.42;;;14.93;;
11187;SDS011;5650;52.700;7.306;2022-11-15T06:08:46;21.08;;;14.95;;
11187;SDS011;5650;52.700;7.306;2022-11-15T06:11:14;21.95;;;14.90;;
11187;SDS011;5650;52.700;7.306;2022-11-15T06:13:41;21.80;;;15.32;;
11187;SDS011;5650;52.700;7.306;2022-11-15T06:16:08;21.25;;;15.43;;
11187;SDS011;5650;52.700;7.306;2022-11-15T06:18:52;19.20;;;15.25;;
11187;SDS011;5650;52.700;7.306;2022-11-15T06:21:19;17.42;;;15.02;;
11187;SDS011;5650;52.700;7.306;2022-11-15T06:23:46;23.13;;;14.55;;
11187;SDS011;5650;52.700;7.306;2022-11-15T06:26:14;19.33;;;13.75;;
11187;SDS011;5650;52.700;7.306;2022-11-15T06:28:43;16.25;;;13.40;;
11187;SDS011;5650;52.700;7.306;2022-11-15T06:31:11;19.55;;;14.10;;
11187;SDS011;5650;52.700;7.306;2022-11-15T06:33:38;19.30;;;14.35;;
11187;SDS011;5650;52.700;7.306;2022-11-15T06:36:08;17.33;;;14.23;;
11187;SDS011;5650;52.700;7.306;2022-11-15T06:38:38;21.30;;;14.60;;
11187;SDS011;5650;52.700;7.306;2022-11-15T06:41:07;17.77;;;14.48;;
11187;SDS011;5650;52.700;7.306;2022-11-15T06:43:38;19.83;;;13.55;;
11187;SDS011;5650;52.700;7.306;2022-11-15T06:46:08;16.55;;;13.45;;
11187;SDS011;5650;52.700;7.306;2022-11-15T06:48:36;18.95;;;15.20;;
11187;SDS011;5650;52.700;7.306;2022-11-15T06:51:10;19.42;;;14.60;;
11187;SDS011;5650;52.700;7.306;2022-11-15T06:53:38;16.48;;;13.07;;
11187;SDS011;5650;52.700;7.306;2022-11-15T06:56:11;18.70;;;14.07;;
11187;SDS011;5650;52.700;7.306;2022-11-15T06:58:38;21.33;;;14.18;;
11187;SDS011;5650;52.700;7.306;2022-11-15T07:01:08;16.23;;;13.18;;
11187;SDS011;5650;52.700;7.306;2022-11-15T07:03:43;19.70;;;14.02;;
11187;SDS011;5650;52.700;7.306;2022-11-15T07:06:12;20.70;;;14.40;;
11187;SDS011;5650;52.700;7.306;2022-11-15T07:08:40;18.38;;;13.70;;
11187;SDS011;5650;52.700;7.306;2022-11-15T07:11:10;17.15;;;13.05;;
11187;SDS011;5650;52.700;7.306;2022-11-15T07:13:37;16.33;;;12.90;;
11187;SDS011;5650;52.700;7.306;2022-11-15T07:16:05;15.15;;;13.02;;
11187;SDS011;5650;52.700;7.306;2022-11-15T07:18:34;13.77;;;11.65;;
11187;SDS011;5650;52.700;7.306;2022-11-15T07:21:02;19.05;;;12.95;;
11187;SDS011;5650;52.700;7.306;2022-11-15T07:23:31;17.30;;;12.23;;
11187;SDS011;5650;52.700;7.306;2022-11-15T07:25:59;13.80;;;12.10;;
11187;SDS011;5650;52.700;7.306;2022-11-15T07:28:29;22.05;;;13.10;;
11187;SDS011;5650;52.700;7.306;2022-11-15T07:30:56;17.90;;;11.57;;
11187;SDS011;5650;52.700;7.306;2022-11-15T07:33:23;16.30;;;12.32;;
11187;SDS011;5650;52.700;7.306;2022-11-15T07:35:58;16.95;;;12.35;;
11187;SDS011;5650;52.700;7.306;2022-11-15T07:38:28;15.23;;;11.65;;
11187;SDS011;5650;52.700;7.306;2022-11-15T07:41:04;17.20;;;11.48;;
11187;SDS011;5650;52.700;7.306;2022-11-15T07:43:32;17.63;;;10.77;;
11187;SDS011;5650;52.700;7.306;2022-11-15T07:46:06;15.52;;;11.80;;
11187;SDS011;5650;52.700;7.306;2022-11-15T07:48:35;13.18;;;11.50;;
11187;SDS011;5650;52.700;7.306;2022-11-15T07:51:02;16.30;;;11.30;;
11187;SDS011;5650;52.700;7.306;2022-11-15T07:53:29;14.32;;;11.20;;
11187;SDS011;5650;52.700;7.306;2022-11-15T07:55:57;16.38;;;11.70;;
11187;SDS011;5650;52.700;7.306;2022-11-15T07:58:26;18.05;;;11.70;;
11187;SDS011;5650;52.700;7.306;2022-11-15T08:00:53;19.23;;;11.55;;
11187;SDS011;5650;52.700;7.306;2022-11-15T08:03:20;14.45;;;11.10;;
11187;SDS011;5650;52.700;7.306;2022-11-15T08:05:49;15.98;;;10.63;;
11187;SDS011;5650;52.700;7.306;2022-11-15T08:08:18;14.48;;;10.48;;
11187;SDS011;5650;52.700;7.306;2022-11-15T08:10:45;14.23;;;10.63;;
11187;SDS011;5650;52.700;7.306;2022-11-15T08:13:12;17.50;;;10.65;;
11187;SDS011;5650;52.700;7.306;2022-11-15T08:15:56;13.65;;;9.90;;
11187;SDS011;5650;52.700;7.306;2022-11-15T08:18:24;18.20;;;11.00;;
11187;SDS011;5650;52.700;7.306;2022-11-15T08:20:58;14.50;;;11.13;;
11187;SDS011;5650;52.700;7.306;2022-11-15T08:23:26;15.85;;;11.13;;
11187;SDS011;5650;52.700;7.306;2022-11-15T08:25:58;15.48;;;10.15;;
11187;SDS011;5650;52.700;7.306;2022-11-15T08:28:26;14.95;;;10.30;;
11187;SDS011;5650;52.700;7.306;2022-11-15T08:30:55;14.43;;;9.77;;
11187;SDS011;5650;52.700;7.306;2022-11-15T08:33:22;16.10;;;10.98;;
11187;SDS011;5650;52.700;7.306;2022-11-15T08:35:55;15.52;;;11.63;;
11187;SDS011;5650;52.700;7.306;2022-11-15T08:38:26;14.80;;;11.40;;
11187;SDS011;5650;52.700;7.306;2022-11-15T08:40:54;16.08;;;11.65;;
11187;SDS011;5650;52.700;7.306;2022-11-15T08:43:27;13.88;;;11.20;;
11187;SDS011;5650;52.700;7.306;2022-11-15T08:45:59;19.23;;;12.18;;
11187;SDS011;5650;52.700;7.306;2022-11-15T08:48:29;15.85;;;12.05;;
11187;SDS011;5650;52.700;7.306;2022-11-15T08:50:57;13.65;;;11.48;;
11187;SDS011;5650;52.700;7.306;2022-11-15T08:53:35;12.85;;;10.98;;
11187;SDS011;5650;52.700;7.306;2022-11-15T08:56:11;18.38;;;11.68;;
11187;SDS011;5650;52.700;7.306;2022-11-15T08:58:40;14.65;;;12.10;;
11187;SDS011;5650;52.700;7.306;2022-11-15T09:01:16;17.33;;;12.35;;
11187;SDS011;5650;52.700;7.306;2022-11-15T09:03:45;17.15;;;13.18;;
11187;SDS011;5650;52.700;7.306;2022-11-15T09:06:12;15.82;;;12.88;;
11187;SDS011;5650;52.700;7.306;2022-11-15T09:08:40;14.05;;;12.23;;
11187;SDS011;5650;52.700;7.306;2022-11-15T09:11:10;17.45;;;12.82;;
11187;SDS011;5650;52.700;7.306;2022-11-15T09:13:37;16.40;;;12.85;;
11187;SDS011;5650;52.700;7.306;2022-11-15T09:16:05;16.58;;;12.45;;
11187;SDS011;5650;52.700;7.306;2022-11-15T09:18:34;14.38;;;12.48;;
11187;SDS011;5650;52.700;7.306;2022-11-15T09:21:01;18.05;;;12.57;;
11187;SDS011;5650;52.700;7.306;2022-11-15T09:23:32;15.15;;;13.48;;
11187;SDS011;5650;52.700;7.306;2022-11-15T09:26:00;16.65;;;13.38;;
11187;SDS011;5650;52.700;7.306;2022-11-15T09:28:29;16.67;;;12.98;;
11187;SDS011;5650;52.700;7.306;2022-11-15T09:31:04;19.88;;;13.35;;
11187;SDS011;5650;52.700;7.306;2022-11-15T09:33:36;16.73;;;12.02;;
11187;SDS011;5650;52.700;7.306;2022-11-15T09:36:05;18.00;;;12.65;;
11187;SDS011;5650;52.700;7.306;2022-11-15T09:38:40;16.52;;;12.27;;
11187;SDS011;5650;52.700;7.306;2022-11-15T09:44:24;16.15;;;11.68;;
11187;SDS011;5650;52.700;7.306;2022-11-15T09:47:03;15.75;;;12.00;;
11187;SDS011;5650;52.700;7.306;2022-11-15T09:49:54;15.65;;;11.85;;
11187;SDS011;5650;52.700;7.306;2022-11-15T09:52:29;13.00;;;11.68;;
11187;SDS011;5650;52.700;7.306;2022-11-15T09:54:59;14.75;;;11.52;;
11187;SDS011;5650;52.700;7.306;2022-11-15T09:57:31;13.20;;;11.75;;
11187;SDS011;5650;52.700;7.306;2022-11-15T10:00:08;12.13;;;10.65;;
11187;SDS011;5650;52.700;7.306;2022-11-15T10:02:46;11.75;;;10.18;;
11187;SDS011;5650;52.700;7.306;2022-11-15T10:05:26;14.10;;;10.68;;
11187;SDS011;5650;52.700;7.306;2022-11-15T10:07:58;12.73;;;10.60;;
11187;SDS011;5650;52.700;7.306;2022-11-15T10:10:32;12.98;;;10.35;;
11187;SDS011;5650;52.700;7.306;2022-11-15T10:13:04;13.00;;;10.05;;
11187;SDS011;5650;52.700;7.306;2022-11-15T10:15:41;13.25;;;9.18;;
11187;SDS011;5650;52.700;7.306;2022-11-15T10:18:16;15.25;;;9.52;;
11187;SDS011;5650;52.700;7.306;2022-11-15T10:20:54;11.60;;;9.52;;
11187;SDS011;5650;52.700;7.306;2022-11-15T10:23:24;10.27;;;8.93;;
11187;SDS011;5650;52.700;7.306;2022-11-15T10:26:00;10.60;;;8.15;;
11187;SDS011;5650;52.700;7.306;2022-11-15T10:28:28;10.25;;;8.30;;
11187;SDS011;5650;52.700;7.306;2022-11-15T10:31:00;9.25;;;8.25;;
11187;SDS011;5650;52.700;7.306;2022-11-15T10:33:32;7.90;;;7.00;;
11187;SDS011;5650;52.700;7.306;2022-11-15T10:38:55;8.50;;;7.53;;
11187;SDS011;5650;52.700;7.306;2022-11-15T10:41:29;8.27;;;7.47;;
11187;SDS011;5650;52.700;7.306;2022-11-15T10:50:00;11.77;;;7.50;;
11187;SDS011;5650;52.700;7.306;2022-11-15T10:52:37;8.95;;;7.47;;
11187;SDS011;5650;52.700;7.306;2022-11-15T10:55:29;11.60;;;8.52;;
11187;SDS011;5650;52.700;7.306;2022-11-15T10:58:01;9.88;;;7.07;;
11187;SDS011;5650;52.700;7.306;2022-11-15T11:00:32;7.65;;;6.85;;
11187;SDS011;5650;52.700;7.306;2022-11-15T11:03:04;8.50;;;6.22;;
11187;SDS011;5650;52.700;7.306;2022-11-15T11:05:36;8.85;;;5.85;;
11187;SDS011;5650;52.700;7.306;2022-11-15T11:08:18;6.57;;;5.55;;
11187;SDS011;5650;52.700;7.306;2022-11-15T11:10:53;5.22;;;4.70;;
11187;SDS011;5650;52.700;7.306;2022-11-15T11:13:25;4.75;;;4.32;;
11187;SDS011;5650;52.700;7.306;2022-11-15T11:15:58;8.32;;;6.63;;
11187;SDS011;5650;52.700;7.306;2022-11-15T11:18:43;4.53;;;3.78;;
11187;SDS011;5650;52.700;7.306;2022-11-15T11:21:17;7.10;;;4.45;;
11187;SDS011;5650;52.700;7.306;2022-11-15T11:23:52;4.70;;;3.55;;
11187;SDS011;5650;52.700;7.306;2022-11-15T11:26:33;3.80;;;3.20;;
11187;SDS011;5650;52.700;7.306;2022-11-15T11:29:19;3.65;;;2.50;;
11187;SDS011;5650;52.700;7.306;2022-11-15T11:32:07;4.70;;;2.33;;
11187;SDS011;5650;52.700;7.306;2022-11-15T11:34:51;4.03;;;2.47;;
11187;SDS011;5650;52.700;7.306;2022-11-15T11:37:28;3.33;;;2.25;;
11187;SDS011;5650;52.700;7.306;2022-11-15T11:40:10;2.30;;;2.10;;
11187;SDS011;5650;52.700;7.306;2022-11-15T11:42:47;4.93;;;2.42;;
11187;SDS011;5650;52.700;7.306;2022-11-15T11:45:26;3.35;;;2.03;;
11187;SDS011;5650;52.700;7.306;2022-11-15T11:48:38;5.00;;;1.95;;
11187;SDS011;5650;52.700;7.306;2022-11-15T11:51:12;4.88;;;2.10;;
11187;SDS011;5650;52.700;7.306;2022-11-15T11:53:46;2.67;;;1.60;;
11187;SDS011;5650;52.700;7.306;2022-11-15T11:56:27;4.55;;;2.85;;
11187;SDS011;5650;52.700;7.306;2022-11-15T11:59:10;3.30;;;2.05;;
11187;SDS011;5650;52.700;7.306;2022-11-15T12:01:48;3.63;;;2.00;;
11187;SDS011;5650;52.700;7.306;2022-11-15T12:04:21;3.25;;;1.90;;
11187;SDS011;5650;52.700;7.306;2022-11-15T12:06:54;4.97;;;1.73;;
11187;SDS011;5650;52.700;7.306;2022-11-15T12:09:28;2.45;;;1.30;;
11187;SDS011;5650;52.700;7.306;2022-11-15T12:12:06;3.08;;;1.70;;
11187;SDS011;5650;52.700;7.306;2022-11-15T12:14:39;3.92;;;1.40;;
11187;SDS011;5650;52.700;7.306;2022-11-15T12:17:10;6.03;;;1.63;;
11187;SDS011;5650;52.700;7.306;2022-11-15T12:19:38;2.15;;;1.60;;
11187;SDS011;5650;52.700;7.306;2022-11-15T12:22:10;3.30;;;1.52;;
11187;SDS011;5650;52.700;7.306;2022-11-15T12:24:46;2.92;;;1.58;;
11187;SDS011;5650;52.700;7.306;2022-11-15T12:27:30;2.38;;;1.50;;
11187;SDS011;5650;52.700;7.306;2022-11-15T12:30:04;2.70;;;1.55;;
11187;SDS011;5650;52.700;7.306;2022-11-15T12:32:37;5.65;;;2.13;;
11187;SDS011;5650;52.700;7.306;2022-11-15T12:35:20;4.10;;;2.05;;
11187;SDS011;5650;52.700;7.306;2022-11-15T12:37:51;2.40;;;1.20;;
11187;SDS011;5650;52.700;7.306;2022-11-15T12:40:32;4.43;;;1.10;;
11187;SDS011;5650;52.700;7.306;2022-11-15T12:43:10;4.72;;;1.40;;
11187;SDS011;5650;52.700;7.306;2022-11-15T12:46:04;3.20;;;1.42;;
11187;SDS011;5650;52.700;7.306;2022-11-15T12:54:50;2.35;;;1.50;;
11187;SDS011;5650;52.700;7.306;2022-11-15T12:57:38;1.65;;;1.30;;
11187;SDS011;5650;52.700;7.306;2022-11-15T13:06:38;5.10;;;2.20;;
11187;SDS011;5650;52.700;7.306;2022-11-15T13:12:08;2.78;;;1.75;;
11187;SDS011;5650;52.700;7.306;2022-11-15T13:14:39;3.97;;;2.80;;
11187;SDS011;5650;52.700;7.306;2022-11-15T13:20:23;2.67;;;2.10;;
11187;SDS011;5650;52.700;7.306;2022-11-15T13:22:59;10.05;;;4.32;;
11187;SDS011;5650;52.700;7.306;2022-11-15T13:25:50;3.97;;;2.38;;
11187;SDS011;5650;52.700;7.306;2022-11-15T13:28:37;7.38;;;3.70;;
11187;SDS011;5650;52.700;7.306;2022-11-15T13:31:21;8.07;;;4.00;;
11187;SDS011;5650;52.700;7.306;2022-11-15T13:33:55;7.55;;;5.00;;
11187;SDS011;5650;52.700;7.306;2022-11-15T13:36:26;9.30;;;2.67;;
11187;SDS011;5650;52.700;7.306;2022-11-15T13:39:06;6.05;;;3.80;;
11187;SDS011;5650;52.700;7.306;2022-11-15T13:41:58;3.95;;;2.53;;
11187;SDS011;5650;52.700;7.306;2022-11-15T13:44:34;4.03;;;2.80;;
11187;SDS011;5650;52.700;7.306;2022-11-15T13:47:05;3.03;;;2.00;;
11187;SDS011;5650;52.700;7.306;2022-11-15T13:49:42;5.07;;;2.40;;
11187;SDS011;5650;52.700;7.306;2022-11-15T13:52:11;2.80;;;1.75;;
11187;SDS011;5650;52.700;7.306;2022-11-15T13:54:42;3.17;;;2.00;;
11187;SDS011;5650;52.700;7.306;2022-11-15T13:57:12;3.80;;;1.60;;
11187;SDS011;5650;52.700;7.306;2022-11-15T13:59:45;3.13;;;2.10;;
11187;SDS011;5650;52.700;7.306;2022-11-15T14:02:15;5.97;;;1.90;;
11187;SDS011;5650;52.700;7.306;2022-11-15T14:04:49;2.83;;;1.90;;
11187;SDS011;5650;52.700;7.306;2022-11-15T14:07:32;3.45;;;1.83;;
11187;SDS011;5650;52.700;7.306;2022-11-15T14:10:16;2.58;;;2.03;;
11187;SDS011;5650;52.700;7.306;2022-11-15T14:12:57;4.70;;;1.85;;
11187;SDS011;5650;52.700;7.306;2022-11-15T14:15:34;7.00;;;2.00;;
11187;SDS011;5650;52.700;7.306;2022-11-15T14:18:03;4.03;;;2.03;;
11187;SDS011;5650;52.700;7.306;2022-11-15T14:20:32;3.10;;;1.90;;
11187;SDS011;5650;52.700;7.306;2022-11-15T14:23:03;2.78;;;1.88;;
11187;SDS011;5650;52.700;7.306;2022-11-15T14:25:31;2.60;;;1.50;;
11187;SDS011;5650;52.700;7.306;2022-11-15T14:31:04;1.67;;;1.58;;
11187;SDS011;5650;52.700;7.306;2022-11-15T14:33:38;3.00;;;1.55;;
11187;SDS011;5650;52.700;7.306;2022-11-15T14:36:11;2.78;;;1.63;;
11187;SDS011;5650;52.700;7.306;2022-11-15T14:38:44;4.05;;;1.70;;
11187;SDS011;5650;52.700;7.306;2022-11-15T14:41:17;10.50;;;1.80;;
11187;SDS011;5650;52.700;7.306;2022-11-15T14:43:49;3.50;;;1.30;;
11187;SDS011;5650;52.700;7.306;2022-11-15T14:46:17;2.40;;;1.70;;
11187;SDS011;5650;52.700;7.306;2022-11-15T14:48:45;1.77;;;1.63;;
11187;SDS011;5650;52.700;7.306;2022-11-15T14:51:26;6.38;;;3.42;;
11187;SDS011;5650;52.700;7.306;2022-11-15T14:53:59;3.67;;;2.97;;
11187;SDS011;5650;52.700;7.306;2022-11-15T14:56:30;4.35;;;3.22;;
11187;SDS011;5650;52.700;7.306;2022-11-15T14:59:03;3.90;;;2.53;;
11187;SDS011;5650;52.700;7.306;2022-11-15T15:01:30;5.20;;;2.05;;
11187;SDS011;5650;52.700;7.306;2022-11-15T15:03:57;4.65;;;1.90;;
11187;SDS011;5650;52.700;7.306;2022-11-15T15:06:27;3.80;;;1.73;;
11187;SDS011;5650;52.700;7.306;2022-11-15T15:08:55;3.58;;;1.80;;
11187;SDS011;5650;52.700;7.306;2022-11-15T15:11:25;3.03;;;1.50;;
11187;SDS011;5650;52.700;7.306;2022-11-15T15:13:54;5.45;;;1.67;;
11187;SDS011;5650;52.700;7.306;2022-11-15T15:16:22;3.90;;;1.85;;
11187;SDS011;5650;52.700;7.306;2022-11-15T15:18:49;3.35;;;1.80;;
11187;SDS011;5650;52.700;7.306;2022-11-15T15:21:19;3.03;;;1.85;;
11187;SDS011;5650;52.700;7.306;2022-11-15T15:23:48;2.80;;;2.08;;
11187;SDS011;5650;52.700;7.306;2022-11-15T15:26:15;2.65;;;1.50;;
11187;SDS011;5650;52.700;7.306;2022-11-15T15:28:44;4.20;;;1.67;;
11187;SDS011;5650;52.700;7.306;2022-11-15T15:31:11;6.63;;;1.50;;
11187;SDS011;5650;52.700;7.306;2022-11-15T15:33:38;4.40;;;2.33;;
11187;SDS011;5650;52.700;7.306;2022-11-15T15:36:08;2.70;;;2.13;;
11187;SDS011;5650;52.700;7.306;2022-11-15T15:38:36;4.63;;;2.28;;
11187;SDS011;5650;52.700;7.306;2022-11-15T15:41:07;5.97;;;2.83;;
11187;SDS011;5650;52.700;7.306;2022-11-15T15:43:36;6.80;;;2.92;;
11187;SDS011;5650;52.700;7.306;2022-11-15T15:46:07;4.75;;;2.83;;
11187;SDS011;5650;52.700;7.306;2022-11-15T15:48:36;4.13;;;2.47;;
11187;SDS011;5650;52.700;7.306;2022-11-15T15:51:04;4.78;;;2.28;;
11187;SDS011;5650;52.700;7.306;2022-11-15T15:53:32;3.80;;;1.92;;